Airfield :
LOGIN :

Register | Disclaimer

   EN    FR    IT 

 










Legend :    VFR   Marginal VFR   IFR   Intensive IFR   Very Intensive IFR
Visi :
Ceiling :
>= 8 km
>= 3000ft
5 to 8 km
1000 to 3000 ft
1500m to 5 km
500 to 1000 ft
800 to 1500m
200 to 500 ft
< 800m
< 200 ft
Symbols :   Thunderstorms  Fog  Heavy snow  Heavy precipitations  Wind > 20 kt
SIGMETs :     Misc.  Thunderstorms  Icing  Turbulence  Mountain Waves  Volcanic Ashes






- Airport Elevation : 17 ft
- IATA code : MPL


LFMT - Montpellier Méditerranée

CURRENT METAR :
  • 201100Z AUTO 14005KT CAVOK 17/06 Q1015 NOSIG

EXPIRED METARs :
  • 201030Z AUTO 16005KT CAVOK 17/05 Q1015 NOSIG
  • 201000Z AUTO 14005KT CAVOK 16/04 Q1016 NOSIG
  • 200930Z AUTO 15005KT 120V180 CAVOK 16/05 Q1016 NOSIG
  • 200900Z AUTO 14004KT CAVOK 15/05 Q1016 NOSIG
  • 200830Z AUTO VRB03KT CAVOK 14/05 Q1016 NOSIG

TAF TAF LFMT
Valid from the 20 at 09:00 until the 21 at 09:00 UTC


200800Z 2009/2109 VRB05KT CAVOK
BECMG 2010/2012 18010KT
BECMG 2019/2022 VRB05KT SCT015
BECMG 2100/2103 -RA SCT015 OVC045
TEMPO 2107/2109 RA BKN015
ATIS : +33 4 67 13 11 70



MET'MAP, your aeronautical weather chart ! - Copyright ORBIFLY December 2007 - Disclaimer

ORBIFLY MET'MAP TEAM :

Programming & Development : Alexandra Zaïnal
Concept & original design : Baudouin d'Aumeries
Assistance for programming : Marc-Olivier Méhu
Technical & hardware support : Manuel Goepfert

Contact : metmap@orbifly.com




SOURCES & CREDITS :

   NOAA